메인 페이지
METAR-TAF:

METAR-TAF

공항 :

Andahuaylas, 페루

위도: 13-43S, 경도: 073-21W, 고도: 3444m

현재 날씨관측

예보는 40분 전, 19:00시(UTC)에 발표되었습니다.
8kt
온도 17°C
습도 55%
기압 1035 hPa
시정 10km 이상
고도 1200ft 상공 구름 보통

METAR: SPHY 181900Z 36008KT 9999 SCT012 17/08 Q1035 RMK BIRD HAZARD RWY03/21 PP000

시각: 14:40 (19:40 UTC)

예보

예보는 2 시간 40분 전, 17:00시(UTC)에 발표되었습니다.
예보 대상 시간: 18일 18시부터 19일 18시까지 (UTC)
북동6kt
시정 10km 이상
고도 2000ft 상공 구름 조금
고도 7000ft 상공 구름 보통

TAF: SPHY 181700Z 1818/1918 04006KT 9999 FEW020 SCT070 TX19/1820Z TN05/1911Z

4,000개 이상의 공항 관측 자료 및 예보 (METAR 및 TAF 보고).

지도상에서 검색 가능한 기상관측소가 노란 점과 빨간 점으로 표시되어 있습니다.

기상관측소 명을 보려면 표시 위로 마우스를 이동하세요.

날씨 관측과 예보를 보려면 클릭하세요.

지도 변경 : 확대하려면 엑스 표시가 있는 녹색 버튼, 축소하려면 빼기 표시가 있는 녹색 버튼, 다음 페이지의 지도를 보려면 녹색 화살표를 클릭하세요.


METAR-TAF: